createdAt,value
2022-12-03T00:00:05.038Z,98890.22
2022-12-03T00:02:34.065Z,98884.84
2022-12-03T00:05:00.553Z,98883.34
2022-12-03T00:07:27.009Z,98883.19
2022-12-03T00:09:53.393Z,98877.34
2022-12-03T00:12:19.818Z,98873.59
2022-12-03T00:14:46.331Z,98872.28
2022-12-03T00:17:12.794Z,98871.72
2022-12-03T00:19:39.261Z,98873.41
2022-12-03T00:22:05.704Z,98875.16
2022-12-03T00:24:32.303Z,98872.84
2022-12-03T00:26:58.772Z,98868.59
2022-12-03T00:29:25.167Z,98871.13
2022-12-03T00:31:51.560Z,98877.81
2022-12-03T00:34:18.051Z,98871.97
2022-12-03T00:36:44.525Z,98876.13
2022-12-03T00:39:10.921Z,98871.81
2022-12-03T00:41:37.358Z,98872.38
2022-12-03T00:44:03.804Z,98877.41
2022-12-03T00:46:30.239Z,98866.66
2022-12-03T00:48:56.691Z,98869.34
2022-12-03T00:51:23.086Z,98867.50
2022-12-03T00:53:49.504Z,98867.41
2022-12-03T00:56:16.087Z,98860.66
2022-12-03T00:58:42.529Z,98867.94
2022-12-03T01:01:08.921Z,98860.13
2022-12-03T01:03:35.591Z,98872.16
2022-12-03T01:06:02.059Z,98866.66
2022-12-03T01:08:28.571Z,98872.91
2022-12-03T01:10:54.949Z,98865.44
2022-12-03T01:13:21.498Z,98861.34
2022-12-03T01:15:47.990Z,98865.53
2022-12-03T01:18:14.451Z,98868.81
2022-12-03T01:20:40.901Z,98869.09
2022-12-03T01:23:07.319Z,98870.69
2022-12-03T01:25:33.813Z,98867.41
2022-12-03T01:28:00.199Z,98869.66
2022-12-03T01:30:26.642Z,98876.00
2022-12-03T01:32:53.054Z,98868.78
2022-12-03T01:35:19.688Z,98871.13
2022-12-03T01:37:46.144Z,98868.19
2022-12-03T01:40:18.655Z,98873.78
2022-12-03T01:42:45.174Z,98878.56
2022-12-03T01:45:21.514Z,98875.47
2022-12-03T01:47:48.140Z,98868.88
2022-12-03T01:50:27.413Z,98868.13
2022-12-03T01:52:58.199Z,98878.34
2022-12-03T01:55:26.539Z,98878.44
2022-12-03T01:57:57.188Z,98878.53
2022-12-03T02:00:26.921Z,98872.19
2022-12-03T02:02:59.667Z,98876.03
2022-12-03T02:05:31.306Z,98882.56
2022-12-03T02:07:58.699Z,98880.94
2022-12-03T02:10:37.760Z,98878.94
2022-12-03T02:13:07.698Z,98881.56
2022-12-03T02:15:35.769Z,98884.50
2022-12-03T02:18:02.747Z,98881.28
2022-12-03T02:20:33.024Z,98887.66
2022-12-03T02:23:13.383Z,98878.66
2022-12-03T02:25:39.903Z,98878.47
2022-12-03T02:28:09.085Z,98878.16
2022-12-03T02:30:36.388Z,98885.88
2022-12-03T02:33:04.049Z,98879.41
2022-12-03T02:35:34.863Z,98886.09
2022-12-03T02:38:12.264Z,98878.84
2022-12-03T02:40:39.519Z,98883.81
2022-12-03T02:43:06.339Z,98875.53
2022-12-03T02:45:39.519Z,98879.38
2022-12-03T02:48:14.470Z,98874.22
2022-12-03T02:50:46.068Z,98876.56
2022-12-03T02:53:17.712Z,98874.28
2022-12-03T02:55:44.954Z,98876.34
2022-12-03T02:58:12.047Z,98880.44
2022-12-03T03:00:39.204Z,98876.41
2022-12-03T03:03:07.783Z,98880.97
2022-12-03T03:05:36.473Z,98877.81
2022-12-03T03:08:03.758Z,98881.38
2022-12-03T03:10:31.874Z,98881.09
2022-12-03T03:12:58.328Z,98882.72
2022-12-03T03:15:25.483Z,98877.22
2022-12-03T03:17:52.357Z,98875.94
2022-12-03T03:20:19.174Z,98876.88
2022-12-03T03:22:45.677Z,98878.31
2022-12-03T03:25:16.759Z,98879.97
2022-12-03T03:27:44.732Z,98869.31
2022-12-03T03:30:12.217Z,98875.50
2022-12-03T03:32:40.114Z,98869.75
2022-12-03T03:35:08.442Z,98872.34
2022-12-03T03:37:35.132Z,98869.03
2022-12-03T03:40:02.033Z,98868.63
2022-12-03T03:42:28.727Z,98871.44
2022-12-03T03:44:55.444Z,98865.44
2022-12-03T03:47:23.780Z,98867.03
2022-12-03T03:49:50.846Z,98861.22
2022-12-03T03:52:19.606Z,98864.63
2022-12-03T03:54:47.032Z,98853.84
2022-12-03T03:57:13.530Z,98867.91
2022-12-03T03:59:40.037Z,98854.63
2022-12-03T04:02:06.435Z,98845.00
2022-12-03T04:04:36.591Z,98847.91
2022-12-03T04:07:03.315Z,98845.19
2022-12-03T04:09:29.860Z,98843.88
2022-12-03T04:12:15.005Z,98839.44
2022-12-03T04:14:41.389Z,98839.16
2022-12-03T04:17:07.793Z,98843.31
2022-12-03T04:19:34.146Z,98839.75
2022-12-03T04:22:19.281Z,98834.09
2022-12-03T04:24:45.783Z,98832.22
2022-12-03T04:27:31.105Z,98824.97
2022-12-03T04:29:57.476Z,98835.97
2022-12-03T04:32:42.372Z,98828.94
2022-12-03T04:35:28.129Z,98826.38
2022-12-03T04:37:54.625Z,98827.63
2022-12-03T04:40:39.548Z,98831.19
2022-12-03T04:43:05.985Z,98824.38
2022-12-03T04:45:32.626Z,98820.69
2022-12-03T04:47:59.074Z,98825.72
2022-12-03T04:50:25.518Z,98831.25
2022-12-03T04:52:51.956Z,98815.84
2022-12-03T04:55:18.428Z,98821.69
2022-12-03T04:57:44.785Z,98827.28
2022-12-03T05:00:11.857Z,98821.03
2022-12-03T05:02:38.334Z,98826.84
2022-12-03T05:05:05.090Z,98825.50
2022-12-03T05:07:31.584Z,98831.84
2022-12-03T05:09:57.992Z,98831.06
2022-12-03T05:12:24.366Z,98835.31
2022-12-03T05:14:50.907Z,98831.63
2022-12-03T05:17:17.559Z,98829.56
2022-12-03T05:20:02.614Z,98831.44
2022-12-03T05:22:29.058Z,98834.06
2022-12-03T05:24:55.986Z,98831.53
2022-12-03T05:27:24.200Z,98830.91
2022-12-03T05:29:51.054Z,98826.94
2022-12-03T05:32:18.281Z,98835.03
2022-12-03T05:34:44.684Z,98826.38
2022-12-03T05:37:11.350Z,98828.63
2022-12-03T05:39:38.205Z,98828.00
2022-12-03T05:42:23.133Z,98827.84
2022-12-03T05:44:49.504Z,98823.63
2022-12-03T05:47:16.147Z,98837.34
2022-12-03T05:49:42.635Z,98826.84
2022-12-03T05:52:09.068Z,98832.84
2022-12-03T05:54:35.489Z,98829.47
2022-12-03T05:57:02.054Z,98830.72
2022-12-03T05:59:28.455Z,98836.72
2022-12-03T06:01:55.265Z,98831.47
2022-12-03T06:04:21.782Z,98829.38
2022-12-03T06:06:48.159Z,98826.44
2022-12-03T06:09:14.642Z,98834.06
2022-12-03T06:11:41.346Z,98832.69
2022-12-03T06:14:08.126Z,98836.06
2022-12-03T06:16:34.504Z,98832.84
2022-12-03T06:19:01.050Z,98832.31
2022-12-03T06:21:27.433Z,98828.03
2022-12-03T06:23:53.861Z,98816.78
2022-12-03T06:26:20.237Z,98825.41
2022-12-03T06:28:49.069Z,98830.19
2022-12-03T06:31:15.471Z,98827.78
2022-12-03T06:33:42.069Z,98832.44
2022-12-03T06:36:08.647Z,98837.19
2022-12-03T06:38:35.026Z,98832.63
2022-12-03T06:41:01.451Z,98824.59
2022-12-03T06:43:27.883Z,98834.25
2022-12-03T06:45:54.337Z,98826.81
2022-12-03T06:48:20.854Z,98831.19
2022-12-03T06:50:47.432Z,98829.50
2022-12-03T06:53:13.949Z,98832.13
2022-12-03T06:55:40.389Z,98830.41
2022-12-03T06:58:06.770Z,98835.41
2022-12-03T07:00:33.240Z,98829.16
2022-12-03T07:02:59.725Z,98826.72
2022-12-03T07:05:26.297Z,98830.59
2022-12-03T07:07:55.445Z,98827.97
2022-12-03T07:10:22.483Z,98822.91
2022-12-03T07:12:48.907Z,98818.78
2022-12-03T07:15:15.435Z,98816.72
2022-12-03T07:17:41.948Z,98818.19
2022-12-03T07:20:09.015Z,98816.97
2022-12-03T07:22:35.544Z,98820.03
2022-12-03T07:25:02.326Z,98819.44
2022-12-03T07:27:28.804Z,98821.03
2022-12-03T07:29:55.205Z,98818.31
2022-12-03T07:32:21.608Z,98822.06
2022-12-03T07:34:48.242Z,98821.72
2022-12-03T07:37:18.661Z,98818.00
2022-12-03T07:39:48.037Z,98823.00
2022-12-03T07:42:14.548Z,98824.63
2022-12-03T07:44:41.111Z,98823.84
2022-12-03T07:47:07.595Z,98822.56
2022-12-03T07:49:34.120Z,98821.81
2022-12-03T07:52:00.600Z,98826.31
2022-12-03T07:54:27.193Z,98823.41
2022-12-03T07:56:59.600Z,98822.75
2022-12-03T07:59:27.906Z,98815.03
2022-12-03T08:01:54.506Z,98822.66
2022-12-03T08:04:21.496Z,98813.19
2022-12-03T08:06:48.498Z,98817.16
2022-12-03T08:09:16.329Z,98822.84
2022-12-03T08:11:48.410Z,98818.59
2022-12-03T08:14:17.591Z,98826.47
2022-12-03T08:16:45.957Z,98818.16
2022-12-03T08:19:15.042Z,98817.91
2022-12-03T08:21:42.619Z,98823.53
2022-12-03T08:24:18.874Z,98817.50
2022-12-03T08:26:46.828Z,98825.44
2022-12-03T08:29:19.433Z,98823.19
2022-12-03T08:31:57.109Z,98820.22
2022-12-03T08:34:27.474Z,98818.75
2022-12-03T08:37:05.916Z,98820.28
2022-12-03T08:39:35.470Z,98822.56
2022-12-03T08:42:26.832Z,98830.72
2022-12-03T08:44:55.298Z,98833.50
2022-12-03T08:47:24.153Z,98827.56
2022-12-03T08:50:03.357Z,98827.84
2022-12-03T08:52:34.625Z,98828.69
2022-12-03T08:55:29.132Z,98824.47
2022-12-03T08:57:55.500Z,98823.94
2022-12-03T09:00:24.652Z,98826.06
2022-12-03T09:02:59.528Z,98828.19
2022-12-03T09:05:29.749Z,98822.50
2022-12-03T09:07:56.338Z,98825.91
2022-12-03T09:10:22.916Z,98827.22
2022-12-03T09:12:49.689Z,98820.72
2022-12-03T09:15:16.352Z,98826.16
2022-12-03T09:17:42.791Z,98826.41
2022-12-03T09:20:09.726Z,98829.72
2022-12-03T09:22:36.298Z,98832.16
2022-12-03T09:25:02.956Z,98823.94
2022-12-03T09:27:29.368Z,98822.75
2022-12-03T09:29:55.887Z,98815.47
2022-12-03T09:32:22.472Z,98815.38
2022-12-03T09:34:48.921Z,98812.59
2022-12-03T09:37:15.464Z,98814.00
2022-12-03T09:39:42.061Z,98813.84
2022-12-03T09:42:09.549Z,98814.72
2022-12-03T09:44:36.556Z,98819.63
2022-12-03T09:47:04.693Z,98812.00
2022-12-03T09:49:33.491Z,98807.88
2022-12-03T09:52:02.779Z,98812.38
2022-12-03T09:54:30.296Z,98811.78
2022-12-03T09:56:59.304Z,98806.53
2022-12-03T09:59:29.762Z,98812.97
2022-12-03T10:01:56.547Z,98810.78
2022-12-03T10:04:24.152Z,98805.94
2022-12-03T10:06:51.317Z,98803.22
2022-12-03T10:09:24.552Z,98798.41
2022-12-03T10:11:51.159Z,98792.19
2022-12-03T10:14:19.557Z,98787.59
2022-12-03T10:16:46.534Z,98789.72
2022-12-03T10:19:21.695Z,98790.19
2022-12-03T10:21:48.206Z,98786.50
2022-12-03T10:24:29.205Z,98783.47
2022-12-03T10:26:58.173Z,98778.44
2022-12-03T10:29:34.707Z,98785.25
2022-12-03T10:32:07.877Z,98771.31
2022-12-03T10:34:44.675Z,98770.75
2022-12-03T10:37:19.794Z,98764.75
2022-12-03T10:39:56.058Z,98763.22
2022-12-03T10:42:24.177Z,98757.47
2022-12-03T10:45:07.753Z,98751.66
2022-12-03T10:47:34.438Z,98754.13
2022-12-03T10:50:03.973Z,98754.00
2022-12-03T10:52:30.745Z,98750.06
2022-12-03T10:54:57.362Z,98739.91
2022-12-03T10:57:24.499Z,98745.75
2022-12-03T10:59:51.061Z,98752.34
2022-12-03T11:02:23.825Z,98743.63
2022-12-03T11:04:51.760Z,98749.69
2022-12-03T11:07:20.565Z,98747.22
2022-12-03T11:09:49.626Z,98744.56
2022-12-03T11:12:25.611Z,98737.63
2022-12-03T11:14:53.323Z,98736.00
2022-12-03T11:17:46.487Z,98738.81
2022-12-03T11:20:24.905Z,98725.03
2022-12-03T11:22:52.857Z,98730.13
2022-12-03T11:25:25.390Z,98732.44
2022-12-03T11:28:10.229Z,98722.88
2022-12-03T11:30:48.923Z,98719.13
2022-12-03T11:33:24.747Z,98729.19
2022-12-03T11:36:03.103Z,98725.50
2022-12-03T11:38:38.410Z,98722.72
2022-12-03T11:41:07.919Z,98720.03
2022-12-03T11:43:52.643Z,98719.34
2022-12-03T11:46:21.325Z,98719.09
2022-12-03T11:48:50.587Z,98709.59
2022-12-03T11:51:21.276Z,98713.69
2022-12-03T11:53:49.422Z,98699.44
2022-12-03T11:56:19.201Z,98710.69
2022-12-03T11:58:47.298Z,98702.06
2022-12-03T12:01:15.972Z,98705.78
2022-12-03T12:03:47.798Z,98702.06
2022-12-03T12:06:16.465Z,98693.22
2022-12-03T12:08:51.787Z,98694.28
2022-12-03T12:11:33.476Z,98688.56
2022-12-03T12:14:26.442Z,98687.50
2022-12-03T12:16:55.156Z,98683.41
2022-12-03T12:19:42.970Z,98676.25
2022-12-03T12:22:24.110Z,98677.69
2022-12-03T12:24:52.876Z,98674.69
2022-12-03T12:27:19.441Z,98671.22
2022-12-03T12:29:52.619Z,98664.25
2022-12-03T12:32:24.112Z,98666.50
2022-12-03T12:34:53.817Z,98661.97
2022-12-03T12:37:32.714Z,98664.44
2022-12-03T12:40:01.445Z,98653.19
2022-12-03T12:42:42.653Z,98657.66
2022-12-03T12:45:16.252Z,98659.94
2022-12-03T12:48:05.773Z,98662.53
2022-12-03T12:50:35.138Z,98662.28
2022-12-03T12:53:25.884Z,98663.50
2022-12-03T12:55:58.051Z,98657.28
2022-12-03T12:58:25.757Z,98668.59
2022-12-03T13:00:54.837Z,98657.41
2022-12-03T13:03:25.416Z,98655.97
2022-12-03T13:05:53.365Z,98665.19
2022-12-03T13:08:42.731Z,98660.59
2022-12-03T13:11:36.960Z,98656.72
2022-12-03T13:14:18.213Z,98659.72
2022-12-03T13:16:46.970Z,98657.88
2022-12-03T13:19:19.044Z,98655.34
2022-12-03T13:21:46.187Z,98654.88
2022-12-03T13:24:24.933Z,98659.94
2022-12-03T13:26:51.685Z,98660.69
2022-12-03T13:29:20.363Z,98666.75
2022-12-03T13:31:52.762Z,98661.25
2022-12-03T13:34:25.831Z,98657.03
2022-12-03T13:36:58.147Z,98656.94
2022-12-03T13:39:37.777Z,98662.56
2022-12-03T13:42:46.494Z,98661.59
2022-12-03T13:45:16.028Z,98651.94
2022-12-03T13:47:50.276Z,98649.75
2022-12-03T13:50:39.383Z,98648.38
2022-12-03T13:53:32.825Z,98652.50
2022-12-03T13:56:33.651Z,98644.91
2022-12-03T13:59:01.270Z,98641.22
2022-12-03T14:01:28.182Z,98642.75
2022-12-03T14:03:54.709Z,98635.06
2022-12-03T14:06:21.218Z,98639.66
2022-12-03T14:08:47.790Z,98638.72
2022-12-03T14:11:34.162Z,98636.44
2022-12-03T14:14:01.059Z,98630.91
2022-12-03T14:16:27.582Z,98631.44
2022-12-03T14:18:54.144Z,98628.06
2022-12-03T14:21:20.553Z,98635.00
2022-12-03T14:23:47.065Z,98632.00
2022-12-03T14:26:13.530Z,98639.25
2022-12-03T14:28:39.950Z,98636.22
2022-12-03T14:31:06.407Z,98628.34
2022-12-03T14:33:33.031Z,98631.44
2022-12-03T14:35:59.568Z,98631.34
2022-12-03T14:38:26.061Z,98628.31
2022-12-03T14:40:52.494Z,98620.44
2022-12-03T14:43:18.926Z,98628.72
2022-12-03T14:45:45.382Z,98628.13
2022-12-03T14:48:11.849Z,98631.16
2022-12-03T14:50:38.256Z,98630.03
2022-12-03T14:53:04.642Z,98631.81
2022-12-03T14:55:31.077Z,98626.53
2022-12-03T14:57:57.468Z,98626.16
2022-12-03T15:00:23.934Z,98619.66
2022-12-03T15:02:50.479Z,98620.72
2022-12-03T15:05:18.598Z,98625.81
2022-12-03T15:07:46.599Z,98618.88
2022-12-03T15:10:13.127Z,98629.31
2022-12-03T15:12:39.580Z,98620.25
2022-12-03T15:15:06.612Z,98623.66
2022-12-03T15:17:33.175Z,98619.91
2022-12-03T15:19:59.727Z,98625.06
2022-12-03T15:22:26.325Z,98627.69
2022-12-03T15:24:52.748Z,98629.75
2022-12-03T15:27:19.292Z,98622.97
2022-12-03T15:29:45.718Z,98627.59
2022-12-03T15:32:12.177Z,98633.44
2022-12-03T15:34:38.597Z,98618.97
2022-12-03T15:37:05.095Z,98628.34
2022-12-03T15:39:32.968Z,98619.41
2022-12-03T15:41:59.411Z,98624.16
2022-12-03T15:44:25.874Z,98627.28
2022-12-03T15:46:52.328Z,98622.94
2022-12-03T15:49:18.976Z,98625.88
2022-12-03T15:51:45.361Z,98625.59
2022-12-03T15:54:12.425Z,98627.88
2022-12-03T15:56:39.043Z,98633.31
2022-12-03T15:59:05.471Z,98634.25
2022-12-03T16:01:32.135Z,98629.00
2022-12-03T16:03:58.775Z,98630.00
2022-12-03T16:06:25.220Z,98633.81
2022-12-03T16:08:51.606Z,98626.88
2022-12-03T16:11:18.086Z,98626.50
2022-12-03T16:13:44.670Z,98629.56
2022-12-03T16:16:11.273Z,98624.47
2022-12-03T16:18:37.740Z,98633.94
2022-12-03T16:21:04.286Z,98631.94
2022-12-03T16:23:30.736Z,98632.59
2022-12-03T16:25:57.139Z,98634.97
2022-12-03T16:28:23.573Z,98634.25
2022-12-03T16:30:50.094Z,98634.91
2022-12-03T16:33:16.602Z,98630.22
2022-12-03T16:35:43.019Z,98631.34
2022-12-03T16:38:09.441Z,98632.88
2022-12-03T16:40:35.876Z,98629.78
2022-12-03T16:43:04.198Z,98629.41
2022-12-03T16:45:50.847Z,98627.16
2022-12-03T16:48:18.402Z,98619.59
2022-12-03T16:50:44.821Z,98618.88
2022-12-03T16:53:11.872Z,98620.81
2022-12-03T16:55:38.238Z,98627.00
2022-12-03T16:58:04.629Z,98624.75
2022-12-03T17:00:31.080Z,98621.66
2022-12-03T17:02:57.636Z,98628.53
2022-12-03T17:05:24.146Z,98617.72
2022-12-03T17:07:50.692Z,98615.66
2022-12-03T17:10:17.292Z,98621.34
2022-12-03T17:13:08.087Z,98613.41
2022-12-03T17:15:30.641Z,98621.50
2022-12-03T17:17:57.512Z,98623.53
2022-12-03T17:20:24.416Z,98617.09
2022-12-03T17:22:50.927Z,98616.97
2022-12-03T17:25:17.641Z,98617.91
2022-12-03T17:27:45.495Z,98614.63
2022-12-03T17:30:12.860Z,98617.44
2022-12-03T17:32:39.423Z,98611.34
2022-12-03T17:35:06.398Z,98606.03
2022-12-03T17:37:32.901Z,98607.44
2022-12-03T17:39:59.448Z,98608.06
2022-12-03T17:42:26.082Z,98604.34
2022-12-03T17:44:52.581Z,98604.03
2022-12-03T17:47:19.033Z,98602.94
2022-12-03T17:49:45.517Z,98603.59
2022-12-03T17:52:12.008Z,98600.41
2022-12-03T17:55:08.595Z,98599.09
2022-12-03T17:57:25.385Z,98590.38
2022-12-03T17:59:52.550Z,98591.88
2022-12-03T18:02:19.258Z,98581.06
2022-12-03T18:04:45.715Z,98584.88
2022-12-03T18:07:12.104Z,98588.56
2022-12-03T18:09:38.560Z,98590.63
2022-12-03T18:12:05.183Z,98587.44
2022-12-03T18:14:31.636Z,98584.81
2022-12-03T18:16:58.047Z,98587.50
2022-12-03T18:19:24.470Z,98587.88
2022-12-03T18:21:50.943Z,98591.34
2022-12-03T18:24:17.626Z,98594.81
2022-12-03T18:26:44.145Z,98592.19
2022-12-03T18:29:10.576Z,98590.19
2022-12-03T18:31:37.039Z,98590.97
2022-12-03T18:34:03.478Z,98590.63
2022-12-03T18:36:35.099Z,98591.75
2022-12-03T18:39:04.447Z,98582.97
2022-12-03T18:41:30.922Z,98583.97
2022-12-03T18:43:57.404Z,98582.53
2022-12-03T18:49:10.760Z,98580.13
2022-12-03T18:51:37.670Z,98578.97
2022-12-03T18:54:04.556Z,98577.66
2022-12-03T18:56:30.977Z,98581.31
2022-12-03T18:58:57.465Z,98585.84
2022-12-03T19:01:24.075Z,98582.13
2022-12-03T19:03:50.640Z,98575.25
2022-12-03T19:06:19.844Z,98573.34
2022-12-03T19:08:48.292Z,98580.06
2022-12-03T19:11:15.300Z,98572.97
2022-12-03T19:13:42.507Z,98581.06
2022-12-03T19:16:10.499Z,98576.19
2022-12-03T19:18:36.996Z,98573.66
2022-12-03T19:21:12.333Z,98575.81
2022-12-03T19:23:39.512Z,98574.25
2022-12-03T19:26:09.527Z,98577.00
2022-12-03T19:28:36.337Z,98570.94
2022-12-03T19:31:13.628Z,98571.47
2022-12-03T19:33:40.399Z,98577.88
2022-12-03T19:36:07.706Z,98580.97
2022-12-03T19:38:34.704Z,98573.91
2022-12-03T19:41:04.153Z,98565.38
2022-12-03T19:43:32.413Z,98567.53
2022-12-03T19:46:06.810Z,98557.44
2022-12-03T19:48:34.649Z,98572.34
2022-12-03T19:51:26.530Z,98569.25
2022-12-03T19:53:48.894Z,98564.41
2022-12-03T19:56:17.868Z,98565.56
2022-12-03T19:58:45.565Z,98567.97
2022-12-03T20:01:18.025Z,98563.06
2022-12-03T20:03:49.757Z,98562.59
2022-12-03T20:06:18.263Z,98568.69
2022-12-03T20:08:45.548Z,98565.38
2022-12-03T20:11:12.059Z,98564.94
2022-12-03T20:13:39.118Z,98564.84
2022-12-03T20:16:07.368Z,98568.31
2022-12-03T20:18:34.094Z,98559.69
2022-12-03T20:21:01.386Z,98558.81
2022-12-03T20:23:28.245Z,98560.72
2022-12-03T20:25:54.939Z,98556.09
2022-12-03T20:28:21.405Z,98567.88
2022-12-03T20:31:09.590Z,98562.84
2022-12-03T20:33:36.855Z,98554.28
2022-12-03T20:36:03.781Z,98556.53
2022-12-03T20:38:31.906Z,98555.19
2022-12-03T20:41:02.339Z,98557.19
2022-12-03T20:43:29.196Z,98551.16
2022-12-03T20:46:01.041Z,98551.41
2022-12-03T20:48:29.072Z,98548.31
2022-12-03T20:50:55.562Z,98553.47
2022-12-03T20:53:25.625Z,98562.13
2022-12-03T20:55:56.436Z,98561.91
2022-12-03T20:58:22.989Z,98565.22
2022-12-03T21:00:49.633Z,98555.72
2022-12-03T21:03:16.267Z,98560.44
2022-12-03T21:05:43.869Z,98560.44
2022-12-03T21:08:10.950Z,98558.94
2022-12-03T21:10:47.605Z,98550.41
2022-12-03T21:13:15.861Z,98552.84
2022-12-03T21:15:43.402Z,98556.88
2022-12-03T21:18:12.030Z,98554.16
2022-12-03T21:20:44.896Z,98539.75
2022-12-03T21:23:11.927Z,98533.72
2022-12-03T21:25:38.488Z,98539.63
2022-12-03T21:28:07.316Z,98548.25
2022-12-03T21:30:36.518Z,98541.03
2022-12-03T21:33:03.383Z,98547.13
2022-12-03T21:35:30.201Z,98556.88
2022-12-03T21:37:56.663Z,98545.84
2022-12-03T21:40:23.216Z,98540.75
2022-12-03T21:42:49.654Z,98538.22
2022-12-03T21:45:16.394Z,98537.34
2022-12-03T21:47:46.554Z,98539.97
2022-12-03T21:50:13.125Z,98533.25
2022-12-03T21:52:39.657Z,98528.63
2022-12-03T21:55:06.389Z,98539.44
2022-12-03T21:57:35.978Z,98541.97
2022-12-03T22:00:07.773Z,98534.94
2022-12-03T22:02:34.718Z,98536.72
2022-12-03T22:05:01.235Z,98534.94
2022-12-03T22:07:27.787Z,98535.72
2022-12-03T22:09:54.426Z,98538.03
2022-12-03T22:12:21.118Z,98535.50
2022-12-03T22:14:47.587Z,98539.97
2022-12-03T22:17:14.019Z,98534.38
2022-12-03T22:19:40.465Z,98538.13
2022-12-03T22:22:06.908Z,98527.84
2022-12-03T22:24:33.535Z,98525.00
2022-12-03T22:26:59.964Z,98531.19
2022-12-03T22:29:26.376Z,98528.09
2022-12-03T22:31:52.748Z,98528.47
2022-12-03T22:34:19.119Z,98527.47
2022-12-03T22:36:45.550Z,98526.06
2022-12-03T22:39:11.951Z,98533.59
2022-12-03T22:41:39.137Z,98531.81
2022-12-03T22:44:05.671Z,98525.94
2022-12-03T22:46:32.107Z,98520.59
2022-12-03T22:49:03.480Z,98515.72
2022-12-03T22:51:33.465Z,98510.47
2022-12-03T22:54:01.676Z,98511.22
2022-12-03T22:56:29.705Z,98511.56
2022-12-03T22:58:56.333Z,98519.06
2022-12-03T23:01:24.394Z,98519.91
2022-12-03T23:03:51.082Z,98509.63
2022-12-03T23:06:18.621Z,98504.84
2022-12-03T23:08:45.062Z,98507.84
2022-12-03T23:11:11.934Z,98508.13
2022-12-03T23:13:38.646Z,98503.59
2022-12-03T23:16:05.446Z,98502.88
2022-12-03T23:18:32.422Z,98488.88
2022-12-03T23:20:59.087Z,98496.78
2022-12-03T23:23:27.357Z,98499.13
2022-12-03T23:26:00.832Z,98498.72
2022-12-03T23:28:28.900Z,98494.88
2022-12-03T23:30:55.936Z,98498.59
2022-12-03T23:33:23.304Z,98482.59
2022-12-03T23:35:49.732Z,98477.34
2022-12-03T23:38:17.515Z,98475.09
2022-12-03T23:40:48.076Z,98472.25
2022-12-03T23:43:15.152Z,98466.13
2022-12-03T23:45:41.618Z,98458.47
2022-12-03T23:48:08.086Z,98460.50
2022-12-03T23:50:34.928Z,98455.63
2022-12-03T23:53:01.311Z,98453.94
2022-12-03T23:55:27.732Z,98452.63
2022-12-03T23:57:54.152Z,98459.56
